Time;durP1;ratioP1;P1;durP2;ratioP2;P2;SDS_P1;SDS_P2;PMS_P1;PMS_P2;Temp;Humidity;BMP_temperature;BMP_pressure;BME280_temperature;BME280_humidity;BME280_pressure;Samples;Min_cycle;Max_cycle;Signal;HPM_P1;HPM_P2
2023/01/22 00:01:23;;;;;;;35.10;17.80;;;;;;;;;;105078;1262;60764;-50
2023/01/22 00:03:51;;;;;;;33.30;17.00;;;;;;;;;;104909;1258;61988;-52
2023/01/22 00:06:18;;;;;;;28.40;15.70;;;;;;;;;;104898;1255;60748;-53
2023/01/22 00:08:46;;;;;;;30.00;16.10;;;;;;;;;;104811;1260;60808;-52
2023/01/22 00:11:13;;;;;;;26.60;16.10;;;;;;;;;;105273;1255;63807;-49
2023/01/22 00:13:40;;;;;;;24.50;16.00;;;;;;;;;;105327;1258;60844;-50
2023/01/22 00:16:07;;;;;;;33.30;15.50;;;;;;;;;;105043;1257;63001;-54
2023/01/22 00:18:34;;;;;;;32.80;16.40;;;;;;;;;;104827;1257;60851;-51
2023/01/22 00:21:01;;;;;;;33.50;16.20;;;;;;;;;;104836;1257;60738;-50
2023/01/22 00:23:27;;;;;;;33.70;17.90;;;;;;;;;;104905;1261;63576;-53
2023/01/22 00:26:11;;;;;;;37.60;17.40;;;;;;;;;;105254;1261;60748;-50
2023/01/22 00:28:40;;;;;;;39.40;17.50;;;;;;;;;;105573;1263;63045;-48
2023/01/22 00:31:08;;;;;;;33.10;17.90;;;;;;;;;;105299;1257;62513;-49
2023/01/22 00:33:35;;;;;;;32.00;18.20;;;;;;;;;;105161;1262;60924;-48
2023/01/22 00:36:05;;;;;;;31.90;17.50;;;;;;;;;;104719;1259;63201;-50
2023/01/22 00:38:32;;;;;;;33.30;16.70;;;;;;;;;;104868;1261;60591;-49
2023/01/22 00:40:59;;;;;;;36.70;17.90;;;;;;;;;;104768;1259;61877;-48
2023/01/22 00:43:26;;;;;;;37.40;18.10;;;;;;;;;;105106;1258;60870;-51
2023/01/22 00:47:59;;;;;;;30.60;16.60;;;;;;;;;;102536;1292;602818;-52
2023/01/22 00:50:26;;;;;;;28.20;17.00;;;;;;;;;;104821;1265;60131;-51
2023/01/22 00:52:53;;;;;;;27.00;16.80;;;;;;;;;;104647;1269;60160;-52
2023/01/22 00:55:19;;;;;;;31.00;17.80;;;;;;;;;;104494;1264;61727;-50
2023/01/22 00:57:46;;;;;;;31.40;18.10;;;;;;;;;;104343;1264;60166;-49
2023/01/22 01:00:13;;;;;;;31.70;17.10;;;;;;;;;;104366;1264;63395;-49
2023/01/22 01:05:25;;;;;;;27.10;16.50;;;;;;;;;;108700;1260;58013;-50
2023/01/22 01:07:52;;;;;;;36.00;16.60;;;;;;;;;;107550;1261;61819;-49
2023/01/22 01:10:18;;;;;;;36.70;18.60;;;;;;;;;;104955;1260;60249;-48
2023/01/22 01:12:46;;;;;;;27.70;17.20;;;;;;;;;;104713;1266;61828;-48
2023/01/22 01:15:12;;;;;;;26.00;15.90;;;;;;;;;;104388;1268;60778;-51
2023/01/22 01:17:39;;;;;;;41.00;17.40;;;;;;;;;;104364;1264;60988;-49
2023/01/22 01:20:06;;;;;;;28.80;17.90;;;;;;;;;;104520;1263;64112;-54
2023/01/22 01:22:32;;;;;;;30.10;16.90;;;;;;;;;;104765;1268;60816;-50
2023/01/22 01:24:59;;;;;;;29.90;16.20;;;;;;;;;;104851;1264;62453;-54
2023/01/22 01:27:28;;;;;;;31.20;17.60;;;;;;;;;;104919;1263;60849;-47
2023/01/22 01:29:56;;;;;;;28.70;16.70;;;;;;;;;;104794;1263;60879;-53
2023/01/22 01:32:23;;;;;;;29.20;15.70;;;;;;;;;;104570;1264;62268;-50
2023/01/22 01:34:49;;;;;;;24.90;16.30;;;;;;;;;;104435;1264;60869;-48
2023/01/22 01:37:16;;;;;;;32.70;16.20;;;;;;;;;;104267;1269;61947;-52
2023/01/22 01:39:42;;;;;;;28.80;16.30;;;;;;;;;;104480;1265;60730;-49
2023/01/22 01:42:09;;;;;;;25.10;15.50;;;;;;;;;;104788;1269;60854;-48
2023/01/22 01:44:36;;;;;;;27.00;16.50;;;;;;;;;;104841;1266;63588;-52
2023/01/22 01:47:04;;;;;;;26.50;16.90;;;;;;;;;;104860;1264;60857;-51
2023/01/22 01:49:42;;;;;;;26.00;16.40;;;;;;;;;;104724;1269;62083;-53
2023/01/22 01:52:09;;;;;;;25.70;15.60;;;;;;;;;;104563;1263;60871;-52
2023/01/22 01:54:36;;;;;;;26.20;16.20;;;;;;;;;;104912;1261;60748;-52
2023/01/22 01:57:04;;;;;;;29.80;17.00;;;;;;;;;;104715;1263;63476;-51
2023/01/22 01:59:32;;;;;;;26.00;16.10;;;;;;;;;;104725;1262;61208;-49
2023/01/22 02:01:59;;;;;;;27.80;16.40;;;;;;;;;;105016;1260;62031;-53
2023/01/22 02:04:25;;;;;;;26.60;16.10;;;;;;;;;;105007;1260;60748;-50
2023/01/22 02:06:52;;;;;;;31.00;16.50;;;;;;;;;;104949;1267;60819;-51
2023/01/22 02:09:19;;;;;;;26.20;16.10;;;;;;;;;;105164;1265;63488;-50
2023/01/22 02:11:47;;;;;;;29.10;15.60;;;;;;;;;;104811;1261;60777;-55
2023/01/22 02:14:19;;;;;;;24.60;15.60;;;;;;;;;;104620;1265;62894;-51
2023/01/22 02:16:45;;;;;;;33.20;16.70;;;;;;;;;;104629;1259;60823;-56
2023/01/22 02:19:12;;;;;;;27.30;16.70;;;;;;;;;;104763;1260;60859;-51
2023/01/22 02:21:38;;;;;;;28.70;16.40;;;;;;;;;;105127;1261;62544;-49
2023/01/22 02:24:06;;;;;;;27.60;16.30;;;;;;;;;;105138;1260;60756;-50
2023/01/22 02:26:33;;;;;;;26.10;15.60;;;;;;;;;;105325;1266;62737;-50
2023/01/22 02:29:00;;;;;;;27.00;16.30;;;;;;;;;;104979;1261;60847;-48
2023/01/22 02:31:28;;;;;;;30.70;16.60;;;;;;;;;;104595;1261;61221;-53
2023/01/22 02:33:56;;;;;;;25.50;15.70;;;;;;;;;;104819;1266;63605;-54
2023/01/22 02:36:25;;;;;;;31.00;16.90;;;;;;;;;;104552;1260;60812;-49
2023/01/22 02:38:52;;;;;;;31.90;16.80;;;;;;;;;;104837;1260;62896;-51
2023/01/22 02:41:18;;;;;;;27.90;17.10;;;;;;;;;;105033;1260;60878;-49
2023/01/22 02:43:45;;;;;;;25.80;16.30;;;;;;;;;;104990;1261;61849;-53
2023/01/22 02:46:12;;;;;;;29.40;17.60;;;;;;;;;;104881;1260;62565;-48
2023/01/22 02:48:38;;;;;;;31.70;17.50;;;;;;;;;;105222;1262;60818;-54
2023/01/22 02:51:05;;;;;;;29.00;16.70;;;;;;;;;;104982;1262;63035;-51
2023/01/22 02:53:32;;;;;;;32.10;17.60;;;;;;;;;;105557;1256;60770;-54
2023/01/22 02:55:59;;;;;;;26.80;15.90;;;;;;;;;;104974;1257;61162;-52
2023/01/22 02:58:25;;;;;;;27.30;15.50;;;;;;;;;;105114;1261;63494;-54
2023/01/22 03:00:52;;;;;;;29.10;16.50;;;;;;;;;;105069;1263;60735;-55
2023/01/22 03:03:19;;;;;;;29.70;16.20;;;;;;;;;;105174;1263;62274;-54
2023/01/22 03:05:49;;;;;;;26.10;16.10;;;;;;;;;;105241;1257;61470;-54
2023/01/22 03:08:17;;;;;;;28.90;16.90;;;;;;;;;;105336;1257;60837;-54
2023/01/22 03:10:43;;;;;;;29.70;16.30;;;;;;;;;;104852;1260;63551;-54
2023/01/22 03:21:28;;;;;;;34.40;18.80;;;;;;;;;;105076;1261;60841;-54
2023/01/22 03:23:55;;;;;;;29.20;16.20;;;;;;;;;;104903;1257;63581;-55
2023/01/22 03:26:22;;;;;;;27.10;15.70;;;;;;;;;;105043;1261;60614;-54
2023/01/22 03:28:49;;;;;;;27.60;16.40;;;;;;;;;;104674;1259;63019;-54
2023/01/22 03:31:15;;;;;;;30.30;16.70;;;;;;;;;;106963;1262;59557;-53
2023/01/22 03:33:43;;;;;;;30.90;16.30;;;;;;;;;;104623;1260;60837;-55
2023/01/22 03:36:11;;;;;;;28.70;15.10;;;;;;;;;;104889;1257;63538;-54
2023/01/22 03:38:41;;;;;;;26.90;13.70;;;;;;;;;;108954;1256;58982;-55
2023/01/22 03:41:13;;;;;;;21.40;12.00;;;;;;;;;;106370;1257;62596;-55
2023/01/22 03:43:41;;;;;;;22.40;13.40;;;;;;;;;;108867;1258;58752;-54
2023/01/22 03:46:11;;;;;;;20.20;10.40;;;;;;;;;;108729;1257;58845;-55
2023/01/22 03:48:40;;;;;;;24.60;11.90;;;;;;;;;;105009;1257;62485;-54
2023/01/22 03:51:07;;;;;;;15.70;9.80;;;;;;;;;;104565;1258;60729;-54
2023/01/22 03:53:34;;;;;;;14.60;9.40;;;;;;;;;;108792;1256;63029;-55
2023/01/22 03:56:03;;;;;;;14.20;8.80;;;;;;;;;;108879;1257;58623;-55
2023/01/22 03:58:30;;;;;;;13.00;9.10;;;;;;;;;;108872;1260;58572;-54
2023/01/22 04:01:01;;;;;;;14.30;9.10;;;;;;;;;;108792;1255;63746;-55
2023/01/22 04:03:28;;;;;;;12.50;8.20;;;;;;;;;;108885;1256;58559;-55
2023/01/22 04:05:58;;;;;;;13.40;8.10;;;;;;;;;;106871;1262;62614;-54
2023/01/22 04:08:27;;;;;;;15.10;8.90;;;;;;;;;;104597;1262;60755;-55
2023/01/22 04:10:54;;;;;;;13.20;8.20;;;;;;;;;;104743;1257;60754;-53
2023/01/22 04:13:21;;;;;;;10.50;7.40;;;;;;;;;;105468;1258;63809;-53
2023/01/22 04:15:49;;;;;;;10.60;7.20;;;;;;;;;;106090;1257;60814;-53
2023/01/22 04:18:36;;;;;;;9.20;6.60;;;;;;;;;;105209;1258;61864;-55
2023/01/22 04:21:21;;;;;;;8.40;6.00;;;;;;;;;;105236;1257;60665;-54
2023/01/22 04:23:52;;;;;;;10.80;6.80;;;;;;;;;;105142;1257;60793;-54
2023/01/22 04:26:19;;;;;;;10.50;6.60;;;;;;;;;;104678;1256;62629;-55
2023/01/22 04:28:46;;;;;;;8.10;6.20;;;;;;;;;;105048;1256;60745;-54
2023/01/22 04:31:13;;;;;;;9.20;6.90;;;;;;;;;;106622;1256;63121;-55
2023/01/22 04:33:50;;;;;;;10.00;6.30;;;;;;;;;;105434;1254;60878;-54
2023/01/22 04:36:21;;;;;;;13.50;7.50;;;;;;;;;;105612;1257;60732;-54
2023/01/22 04:38:48;;;;;;;8.80;7.00;;;;;;;;;;105689;1256;63664;-53
2023/01/22 04:41:15;;;;;;;11.10;7.00;;;;;;;;;;105691;1254;60677;-54
2023/01/22 04:43:42;;;;;;;13.30;9.20;;;;;;;;;;105524;1253;63126;-56
2023/01/22 04:46:08;;;;;;;12.40;8.60;;;;;;;;;;105175;1259;60880;-55
2023/01/22 04:48:35;;;;;;;15.10;9.40;;;;;;;;;;105231;1253;61204;-52
2023/01/22 04:51:02;;;;;;;9.90;7.90;;;;;;;;;;105690;1253;63416;-52
2023/01/22 04:53:30;;;;;;;13.30;9.50;;;;;;;;;;106005;1254;60824;-54
2023/01/22 04:55:57;;;;;;;13.40;8.90;;;;;;;;;;105511;1253;62724;-54
2023/01/22 04:58:24;;;;;;;17.50;11.80;;;;;;;;;;105489;1254;61596;-55
2023/01/22 05:00:56;;;;;;;14.70;10.60;;;;;;;;;;105692;1253;61555;-55
2023/01/22 05:03:23;;;;;;;14.90;10.60;;;;;;;;;;105429;1261;63039;-56
2023/01/22 05:05:50;;;;;;;12.90;8.60;;;;;;;;;;105525;1254;61554;-53
2023/01/22 05:08:17;;;;;;;11.90;8.00;;;;;;;;;;105496;1254;62997;-53
2023/01/22 05:10:44;;;;;;;13.30;9.10;;;;;;;;;;105644;1254;61650;-53
2023/01/22 05:13:16;;;;;;;9.20;7.40;;;;;;;;;;105597;1252;60695;-54
2023/01/22 05:15:43;;;;;;;9.20;6.80;;;;;;;;;;105682;1254;64027;-50
2023/01/22 05:18:12;;;;;;;10.40;6.80;;;;;;;;;;105514;1259;61695;-54
2023/01/22 05:20:45;;;;;;;9.60;6.80;;;;;;;;;;105662;1254;63141;-54
2023/01/22 05:23:12;;;;;;;11.10;6.40;;;;;;;;;;105632;1256;61624;-53
2023/01/22 05:25:45;;;;;;;7.20;6.10;;;;;;;;;;105734;1254;61753;-52
2023/01/22 05:28:13;;;;;;;9.80;6.40;;;;;;;;;;106902;1256;64535;-55
2023/01/22 05:30:58;;;;;;;9.70;6.60;;;;;;;;;;105563;1254;61612;-55
2023/01/22 05:33:35;;;;;;;10.30;6.40;;;;;;;;;;106161;1254;65017;-55
2023/01/22 05:36:03;;;;;;;8.60;6.20;;;;;;;;;;105320;1259;61663;-53
2023/01/22 05:38:33;;;;;;;9.10;6.00;;;;;;;;;;105493;1254;61612;-52
2023/01/22 05:41:05;;;;;;;9.30;6.30;;;;;;;;;;105421;1256;63984;-55
2023/01/22 05:43:36;;;;;;;10.70;7.10;;;;;;;;;;108538;1258;59913;-53
2023/01/22 05:46:04;;;;;;;10.70;6.20;;;;;;;;;;105397;1258;62108;-54
2023/01/22 05:49:03;;;;;;;11.10;6.50;;;;;;;;;;105407;1257;61666;-54
2023/01/22 05:51:31;;;;;;;8.40;6.20;;;;;;;;;;106000;1254;61667;-54
2023/01/22 05:53:58;;;;;;;10.50;6.80;;;;;;;;;;104929;1253;64886;-53
2023/01/22 05:56:28;;;;;;;9.10;6.30;;;;;;;;;;105018;1259;61682;-54
2023/01/22 05:58:56;;;;;;;9.70;6.40;;;;;;;;;;104833;1253;62061;-54
2023/01/22 06:01:22;;;;;;;11.00;6.40;;;;;;;;;;105370;1257;61421;-54
2023/01/22 06:03:50;;;;;;;10.90;6.60;;;;;;;;;;105466;1255;61641;-55
2023/01/22 06:06:19;;;;;;;10.60;7.40;;;;;;;;;;105444;1259;64436;-52
2023/01/22 06:08:46;;;;;;;9.40;6.00;;;;;;;;;;105421;1253;61593;-55
2023/01/22 06:11:13;;;;;;;11.50;6.80;;;;;;;;;;108948;1253;63132;-55
2023/01/22 06:13:43;;;;;;;10.40;7.10;;;;;;;;;;105335;1253;61595;-54
2023/01/22 06:16:17;;;;;;;9.50;7.20;;;;;;;;;;104745;1254;61576;-54
2023/01/22 06:19:07;;;;;;;10.50;7.30;;;;;;;;;;104891;1256;65736;-55
2023/01/22 06:21:38;;;;;;;10.90;7.70;;;;;;;;;;109132;1253;59559;-55
2023/01/22 06:24:06;;;;;;;12.00;7.40;;;;;;;;;;108980;1253;62885;-55
2023/01/22 06:26:33;;;;;;;10.80;6.80;;;;;;;;;;109108;1253;60324;-53
2023/01/22 06:29:00;;;;;;;12.40;7.40;;;;;;;;;;108904;1252;59803;-53
2023/01/22 06:31:27;;;;;;;15.60;9.00;;;;;;;;;;108969;1253;64399;-52
2023/01/22 06:33:54;;;;;;;12.80;8.10;;;;;;;;;;109028;1253;59425;-53
2023/01/22 06:36:21;;;;;;;12.40;8.10;;;;;;;;;;109153;1253;63185;-53
2023/01/22 06:38:48;;;;;;;12.80;7.80;;;;;;;;;;109094;1257;59607;-54
2023/01/22 06:41:18;;;;;;;10.90;7.40;;;;;;;;;;109059;1254;61051;-54
2023/01/22 06:43:46;;;;;;;12.20;8.80;;;;;;;;;;109011;1254;65325;-54
2023/01/22 06:46:12;;;;;;;16.00;9.20;;;;;;;;;;109036;1253;59514;-54
2023/01/22 06:49:01;;;;;;;12.00;8.30;;;;;;;;;;105525;1257;62742;-52
2023/01/22 06:51:28;;;;;;;12.40;8.10;;;;;;;;;;105509;1253;61458;-54
2023/01/22 06:53:55;;;;;;;14.00;8.90;;;;;;;;;;105476;1253;61579;-54
2023/01/22 06:56:21;;;;;;;15.60;9.20;;;;;;;;;;105372;1255;64823;-55
2023/01/22 06:58:48;;;;;;;12.80;8.50;;;;;;;;;;105532;1253;61634;-55
2023/01/22 07:01:15;;;;;;;14.40;9.30;;;;;;;;;;105536;1259;62794;-55
2023/01/22 07:03:42;;;;;;;14.10;7.60;;;;;;;;;;105769;1257;61587;-52
2023/01/22 07:06:09;;;;;;;12.80;8.30;;;;;;;;;;105735;1257;61711;-54
2023/01/22 07:08:35;;;;;;;16.20;8.50;;;;;;;;;;105617;1254;64522;-54
2023/01/22 07:11:02;;;;;;;13.40;8.80;;;;;;;;;;105591;1253;61566;-54
2023/01/22 07:13:31;;;;;;;15.10;9.60;;;;;;;;;;105125;1256;62873;-53
2023/01/22 07:16:02;;;;;;;15.70;9.20;;;;;;;;;;104874;1254;61456;-55
2023/01/22 07:18:28;;;;;;;13.40;8.70;;;;;;;;;;106561;1254;61561;-53
2023/01/22 07:20:59;;;;;;;10.80;6.80;;;;;;;;;;105109;1259;64668;-54
2023/01/22 07:23:25;;;;;;;18.80;8.50;;;;;;;;;;105139;1259;61670;-50
2023/01/22 07:25:52;;;;;;;19.70;9.60;;;;;;;;;;105414;1254;63888;-52
2023/01/22 07:28:19;;;;;;;11.80;8.10;;;;;;;;;;105056;1257;61640;-55
2023/01/22 07:30:45;;;;;;;12.70;8.10;;;;;;;;;;104829;1256;61654;-55
2023/01/22 07:33:12;;;;;;;15.00;8.70;;;;;;;;;;105028;1258;65005;-52
2023/01/22 07:35:39;;;;;;;14.70;8.50;;;;;;;;;;105552;1259;61705;-53
2023/01/22 07:38:06;;;;;;;12.40;8.30;;;;;;;;;;105502;1256;62802;-54
2023/01/22 07:40:33;;;;;;;15.20;8.70;;;;;;;;;;105018;1254;61672;-53
2023/01/22 07:43:03;;;;;;;11.70;8.40;;;;;;;;;;105180;1258;61635;-52
2023/01/22 07:45:29;;;;;;;11.10;8.60;;;;;;;;;;105067;1257;64325;-52
2023/01/22 07:47:57;;;;;;;12.50;8.40;;;;;;;;;;105179;1257;61622;-54
2023/01/22 07:50:24;;;;;;;11.40;8.50;;;;;;;;;;105497;1254;62958;-53
2023/01/22 07:52:51;;;;;;;13.30;8.00;;;;;;;;;;105580;1259;61551;-54
2023/01/22 07:55:17;;;;;;;7.90;7.10;;;;;;;;;;105499;1257;61532;-51
2023/01/22 07:57:44;;;;;;;12.60;8.30;;;;;;;;;;105424;1258;64177;-54
2023/01/22 08:00:11;;;;;;;9.80;7.20;;;;;;;;;;105179;1258;61716;-53
2023/01/22 08:02:38;;;;;;;11.00;7.70;;;;;;;;;;105914;1256;62994;-54
2023/01/22 08:05:06;;;;;;;10.80;7.60;;;;;;;;;;105108;1254;61744;-54
2023/01/22 08:07:33;;;;;;;9.90;7.40;;;;;;;;;;105606;1254;61872;-54
2023/01/22 08:10:00;;;;;;;10.30;8.10;;;;;;;;;;105389;1256;63526;-53
2023/01/22 08:12:27;;;;;;;12.00;7.90;;;;;;;;;;105529;1258;61447;-55
2023/01/22 08:14:54;;;;;;;10.60;7.80;;;;;;;;;;105546;1254;63079;-54
2023/01/22 08:17:20;;;;;;;8.80;7.20;;;;;;;;;;105252;1257;61675;-55
2023/01/22 08:19:47;;;;;;;10.20;7.90;;;;;;;;;;105006;1254;61673;-54
2023/01/22 08:22:14;;;;;;;11.80;8.50;;;;;;;;;;105123;1253;63075;-54
2023/01/22 08:24:41;;;;;;;11.40;8.60;;;;;;;;;;105090;1257;61513;-53
2023/01/22 08:27:08;;;;;;;11.60;8.60;;;;;;;;;;104899;1254;63722;-54
2023/01/22 08:29:34;;;;;;;13.80;9.30;;;;;;;;;;105150;1260;61654;-52
2023/01/22 08:32:01;;;;;;;15.10;10.10;;;;;;;;;;105536;1255;61544;-55
2023/01/22 08:34:28;;;;;;;12.80;8.50;;;;;;;;;;104841;1257;64211;-53
2023/01/22 08:36:54;;;;;;;14.10;10.00;;;;;;;;;;105210;1255;61557;-51
2023/01/22 08:39:21;;;;;;;15.50;10.80;;;;;;;;;;105499;1259;63022;-55
2023/01/22 08:41:48;;;;;;;15.50;10.70;;;;;;;;;;105587;1256;61406;-53
2023/01/22 08:44:14;;;;;;;14.50;10.90;;;;;;;;;;105520;1258;61653;-55
2023/01/22 08:46:41;;;;;;;15.50;10.70;;;;;;;;;;105657;1259;64457;-54
2023/01/22 08:49:08;;;;;;;14.10;10.80;;;;;;;;;;105029;1251;61669;-54
2023/01/22 08:51:34;;;;;;;15.50;9.60;;;;;;;;;;104661;1256;64618;-54
2023/01/22 08:54:01;;;;;;;21.10;12.40;;;;;;;;;;104845;1254;61637;-52
2023/01/22 08:56:28;;;;;;;15.70;10.00;;;;;;;;;;105039;1252;61861;-54
2023/01/22 08:58:58;;;;;;;17.30;10.50;;;;;;;;;;105481;1257;64420;-53
2023/01/22 09:01:25;;;;;;;16.60;10.90;;;;;;;;;;104939;1255;62018;-56
2023/01/22 09:03:52;;;;;;;17.40;11.60;;;;;;;;;;105424;1256;63049;-55
2023/01/22 09:06:18;;;;;;;17.00;11.30;;;;;;;;;;104927;1260;61606;-51
2023/01/22 09:08:45;;;;;;;19.00;11.90;;;;;;;;;;105231;1257;61586;-54
2023/01/22 09:11:12;;;;;;;15.00;10.10;;;;;;;;;;104880;1256;64728;-54
2023/01/22 09:13:38;;;;;;;18.80;10.10;;;;;;;;;;105044;1256;63339;-53
2023/01/22 09:16:09;;;;;;;17.90;10.00;;;;;;;;;;109203;1256;62252;-56
2023/01/22 09:18:36;;;;;;;16.00;10.20;;;;;;;;;;109259;1251;59706;-58
2023/01/22 09:21:04;;;;;;;12.80;8.70;;;;;;;;;;107909;1251;61640;-54
2023/01/22 09:23:31;;;;;;;14.50;9.20;;;;;;;;;;109100;1253;64949;-54
2023/01/22 09:25:57;;;;;;;14.60;9.00;;;;;;;;;;109207;1250;60144;-55
2023/01/22 09:28:24;;;;;;;14.90;9.10;;;;;;;;;;109041;1256;63052;-54
2023/01/22 09:30:50;;;;;;;15.80;10.40;;;;;;;;;;109265;1251;60430;-54
2023/01/22 09:33:17;;;;;;;14.20;8.60;;;;;;;;;;109363;1251;59520;-54
2023/01/22 09:35:44;;;;;;;10.80;8.20;;;;;;;;;;109240;1252;63340;-54
2023/01/22 09:38:11;;;;;;;11.30;8.80;;;;;;;;;;109259;1256;59939;-54
2023/01/22 09:40:47;;;;;;;16.50;9.10;;;;;;;;;;109214;1252;61921;-53
2023/01/22 09:43:16;;;;;;;13.60;9.70;;;;;;;;;;109226;1251;61112;-54
2023/01/22 09:45:43;;;;;;;12.30;7.80;;;;;;;;;;109265;1253;59557;-54
2023/01/22 09:48:11;;;;;;;9.90;7.50;;;;;;;;;;109274;1254;64533;-53
2023/01/22 09:50:38;;;;;;;11.40;7.80;;;;;;;;;;109287;1251;59591;-54
2023/01/22 09:53:06;;;;;;;11.30;9.20;;;;;;;;;;106644;1254;62080;-53
2023/01/22 09:55:35;;;;;;;12.30;8.80;;;;;;;;;;108359;1256;60427;-53
2023/01/22 09:58:04;;;;;;;15.40;10.60;;;;;;;;;;104959;1256;61493;-54
2023/01/22 10:00:43;;;;;;;10.90;8.20;;;;;;;;;;106909;1254;64387;-53
2023/01/22 10:03:17;;;;;;;16.30;10.10;;;;;;;;;;106311;1251;61593;-53
2023/01/22 10:05:45;;;;;;;15.00;8.20;;;;;;;;;;106319;1256;62094;-54
2023/01/22 10:08:16;;;;;;;14.80;9.50;;;;;;;;;;105289;1251;63817;-54
2023/01/22 10:10:43;;;;;;;11.70;8.90;;;;;;;;;;105256;1259;61564;-53
2023/01/22 10:13:19;;;;;;;10.90;7.90;;;;;;;;;;105106;1266;63059;-53
2023/01/22 10:15:46;;;;;;;13.20;8.00;;;;;;;;;;105528;1257;61479;-50
2023/01/22 10:18:19;;;;;;;9.50;6.60;;;;;;;;;;105379;1257;62751;-54
2023/01/22 10:20:45;;;;;;;9.90;7.20;;;;;;;;;;105481;1256;61682;-54
2023/01/22 10:23:15;;;;;;;14.00;8.40;;;;;;;;;;105545;1251;61640;-55
2023/01/22 10:25:42;;;;;;;10.60;7.70;;;;;;;;;;107011;1251;65401;-56
2023/01/22 10:28:08;;;;;;;9.60;7.50;;;;;;;;;;105596;1257;61495;-53
2023/01/22 10:30:43;;;;;;;10.40;6.10;;;;;;;;;;105427;1259;61722;-54
2023/01/22 10:33:20;;;;;;;8.40;6.00;;;;;;;;;;106615;1256;61624;-54
2023/01/22 10:35:47;;;;;;;11.00;7.60;;;;;;;;;;105660;1251;61586;-54
2023/01/22 10:38:23;;;;;;;9.90;6.60;;;;;;;;;;105619;1257;64241;-53
2023/01/22 10:41:00;;;;;;;11.80;6.70;;;;;;;;;;105596;1257;61649;-54
2023/01/22 10:43:34;;;;;;;12.70;7.90;;;;;;;;;;109218;1251;61855;-57
2023/01/22 10:46:17;;;;;;;16.40;8.10;;;;;;;;;;109189;1251;59607;-55
2023/01/22 10:48:43;;;;;;;13.90;8.30;;;;;;;;;;109059;1251;59689;-55
2023/01/22 10:51:14;;;;;;;15.80;9.30;;;;;;;;;;107119;1251;64200;-52
2023/01/22 10:53:48;;;;;;;15.20;8.60;;;;;;;;;;109002;1257;59509;-54
2023/01/22 10:56:23;;;;;;;14.20;8.30;;;;;;;;;;108942;1251;63069;-54
2023/01/22 10:58:50;;;;;;;15.00;8.40;;;;;;;;;;109253;1252;59343;-56
2023/01/22 11:01:35;;;;;;;19.60;14.10;;;;;;;;;;109194;1257;59919;-55
2023/01/22 11:04:10;;;;;;;16.10;10.50;;;;;;;;;;109247;1251;63524;-55
2023/01/22 11:06:39;;;;;;;16.40;11.50;;;;;;;;;;108039;1257;61559;-54
2023/01/22 11:09:14;;;;;;;14.90;10.10;;;;;;;;;;105120;1256;62865;-54
2023/01/22 11:11:46;;;;;;;16.00;10.10;;;;;;;;;;104963;1262;61719;-53
2023/01/22 11:14:23;;;;;;;11.00;7.50;;;;;;;;;;105550;1257;61464;-53
2023/01/22 11:16:50;;;;;;;8.90;7.60;;;;;;;;;;105097;1251;64707;-55
2023/01/22 11:19:18;;;;;;;11.80;7.50;;;;;;;;;;105323;1254;61981;-55
2023/01/22 11:22:02;;;;;;;;;;;;;;;;;;105651;1257;62871;-53
2023/01/22 11:24:31;;;;;;;11.40;7.60;;;;;;;;;;105658;1256;61646;-55
2023/01/22 11:27:07;;;;;;;10.90;6.60;;;;;;;;;;105294;1251;61748;-50
2023/01/22 11:29:52;;;;;;;14.70;7.60;;;;;;;;;;105335;1251;63197;-54
2023/01/22 11:32:21;;;;;;;10.80;7.10;;;;;;;;;;105219;1256;61650;-54
2023/01/22 11:34:54;;;;;;;14.50;8.20;;;;;;;;;;105376;1251;64646;-56
2023/01/22 11:37:36;;;;;;;10.90;7.10;;;;;;;;;;105561;1257;61474;-54
2023/01/22 11:40:06;;;;;;;11.50;7.50;;;;;;;;;;107246;1250;61663;-54
2023/01/22 11:42:41;;;;;;;12.30;7.30;;;;;;;;;;105313;1256;64433;-55
2023/01/22 11:45:16;;;;;;;11.20;7.20;;;;;;;;;;105500;1256;61919;-55
2023/01/22 11:47:49;;;;;;;12.80;8.40;;;;;;;;;;105029;1256;62884;-56
2023/01/22 11:50:16;;;;;;;11.60;8.00;;;;;;;;;;105767;1251;61620;-54
2023/01/22 11:52:46;;;;;;;12.50;8.40;;;;;;;;;;105132;1251;61576;-53
2023/01/22 11:55:18;;;;;;;23.30;13.00;;;;;;;;;;105553;1257;63089;-56
2023/01/22 11:57:47;;;;;;;18.80;13.30;;;;;;;;;;105881;1255;61643;-55
2023/01/22 12:00:20;;;;;;;13.90;8.30;;;;;;;;;;108312;1255;62970;-52
2023/01/22 12:03:06;;;;;;;18.80;10.90;;;;;;;;;;105448;1251;61558;-54
2023/01/22 12:05:36;;;;;;;15.80;10.30;;;;;;;;;;105100;1251;61593;-52
2023/01/22 12:08:18;;;;;;;16.70;12.10;;;;;;;;;;105403;1256;63051;-56
2023/01/22 12:10:44;;;;;;;11.60;9.20;;;;;;;;;;105171;1259;61577;-54
2023/01/22 12:13:21;;;;;;;16.10;9.80;;;;;;;;;;105239;1253;63134;-54
2023/01/22 12:16:07;;;;;;;13.60;9.00;;;;;;;;;;105195;1254;61693;-56
2023/01/22 12:18:46;;;;;;;15.70;9.40;;;;;;;;;;105227;1256;62022;-56
2023/01/22 12:21:13;;;;;;;12.10;8.30;;;;;;;;;;105140;1258;64128;-53
2023/01/22 12:23:41;;;;;;;12.90;8.30;;;;;;;;;;105258;1256;61365;-52
2023/01/22 12:26:10;;;;;;;17.30;9.40;;;;;;;;;;105177;1257;63435;-50
2023/01/22 12:28:40;;;;;;;17.30;9.80;;;;;;;;;;109207;1254;59348;-55
2023/01/22 12:31:06;;;;;;;13.70;9.30;;;;;;;;;;109345;1256;60788;-54
2023/01/22 12:33:37;;;;;;;15.90;9.30;;;;;;;;;;109326;1251;64414;-54
2023/01/22 12:36:04;;;;;;;11.70;8.30;;;;;;;;;;109350;1254;59653;-55
2023/01/22 12:38:41;;;;;;;12.80;7.00;;;;;;;;;;109280;1251;63612;-53
2023/01/22 12:41:17;;;;;;;9.90;6.30;;;;;;;;;;109336;1251;59513;-54
2023/01/22 12:43:53;;;;;;;13.20;8.40;;;;;;;;;;108380;1251;61615;-51
2023/01/22 12:46:24;;;;;;;11.50;7.90;;;;;;;;;;105594;1257;64184;-57
2023/01/22 12:49:04;;;;;;;15.20;7.70;;;;;;;;;;106404;1251;62637;-56
2023/01/22 12:51:38;;;;;;;11.60;7.10;;;;;;;;;;107788;1251;62132;-54
2023/01/22 12:54:08;;;;;;;9.60;6.40;;;;;;;;;;109163;1251;60184;-54
2023/01/22 12:56:35;;;;;;;10.50;6.90;;;;;;;;;;105276;1251;61554;-52
2023/01/22 12:59:01;;;;;;;9.40;6.10;;;;;;;;;;105198;1258;64644;-56
2023/01/22 13:01:32;;;;;;;9.60;6.40;;;;;;;;;;105291;1256;121667;-54
2023/01/22 13:05:37;;;;;;;9.00;6.60;;;;;;;;;;102572;1290;602419;-52
2023/01/22 13:08:16;;;;;;;9.00;6.50;;;;;;;;;;104630;1269;60129;-53
2023/01/22 13:11:02;;;;;;;10.30;7.10;;;;;;;;;;104676;1263;60256;-52
2023/01/22 13:13:31;;;;;;;10.80;7.20;;;;;;;;;;104310;1267;62866;-54
2023/01/22 13:16:01;;;;;;;7.60;5.90;;;;;;;;;;104006;1272;60968;-54
2023/01/22 13:18:29;;;;;;;10.00;6.40;;;;;;;;;;104238;1263;149375;-53
2023/01/22 13:21:06;;;;;;;9.60;7.20;;;;;;;;;;104749;1264;60079;-52
2023/01/22 13:23:53;;;;;;;9.60;6.40;;;;;;;;;;104638;1263;60650;-54
2023/01/22 13:26:21;;;;;;;8.30;6.00;;;;;;;;;;104397;1263;62620;-54
2023/01/22 13:28:51;;;;;;;8.60;5.50;;;;;;;;;;104179;1269;60025;-52
2023/01/22 13:31:17;;;;;;;7.70;5.10;;;;;;;;;;104758;1270;63061;-53
2023/01/22 13:33:51;;;;;;;8.60;5.90;;;;;;;;;;104246;1264;61286;-51
2023/01/22 13:36:18;;;;;;;7.30;5.50;;;;;;;;;;104586;1264;61012;-54
2023/01/22 13:38:49;;;;;;;7.40;4.90;;;;;;;;;;104519;1269;62249;-52
2023/01/22 13:41:17;;;;;;;9.00;5.80;;;;;;;;;;104687;1263;60783;-53
2023/01/22 13:43:44;;;;;;;7.10;5.50;;;;;;;;;;104761;1269;62754;-54
2023/01/22 13:46:11;;;;;;;10.40;5.50;;;;;;;;;;104793;1269;60661;-53
2023/01/22 13:48:38;;;;;;;8.90;5.70;;;;;;;;;;104896;1264;60718;-53
2023/01/22 13:52:24;;;;;;;7.30;5.40;;;;;;;;;;102046;1289;601770;-52
2023/01/22 13:54:54;;;;;;;8.60;5.70;;;;;;;;;;104464;1261;60274;-53
2023/01/22 13:57:21;;;;;;;9.50;6.70;;;;;;;;;;104492;1263;60153;-53
2023/01/22 14:00:14;;;;;;;7.10;5.30;;;;;;;;;;104607;1261;63114;-54
2023/01/22 14:02:42;;;;;;;8.70;5.20;;;;;;;;;;105620;1266;60230;-54
2023/01/22 14:05:19;;;;;;;7.00;4.80;;;;;;;;;;104997;1266;140838;-52
2023/01/22 14:07:46;;;;;;;8.50;5.40;;;;;;;;;;105200;1263;60507;-53
2023/01/22 14:10:13;;;;;;;7.80;6.70;;;;;;;;;;104852;1258;60270;-49
2023/01/22 14:12:40;;;;;;;5.60;4.70;;;;;;;;;;104689;1266;63871;-50
2023/01/22 14:15:14;;;;;;;7.70;6.10;;;;;;;;;;104584;1258;60235;-51
2023/01/22 14:17:41;;;;;;;8.50;6.10;;;;;;;;;;104819;1267;62083;-52
2023/01/22 14:20:08;;;;;;;6.30;5.70;;;;;;;;;;105040;1266;60739;-50
2023/01/22 14:22:34;;;;;;;7.10;5.40;;;;;;;;;;105309;1261;60637;-53
2023/01/22 14:25:01;;;;;;;7.10;5.30;;;;;;;;;;105053;1266;63606;-54
2023/01/22 14:27:38;;;;;;;7.20;5.30;;;;;;;;;;105079;1258;60920;-52
2023/01/22 14:30:05;;;;;;;10.00;6.70;;;;;;;;;;104782;1261;61838;-52
2023/01/22 14:32:32;;;;;;;10.70;7.60;;;;;;;;;;104716;1260;62291;-49
2023/01/22 14:35:00;;;;;;;11.60;7.10;;;;;;;;;;104419;1258;60853;-49
2023/01/22 14:37:27;;;;;;;11.40;7.50;;;;;;;;;;104553;1260;62580;-49
2023/01/22 14:39:54;;;;;;;9.10;7.30;;;;;;;;;;104994;1264;60927;-51
2023/01/22 14:44:19;;;;;;;13.10;9.90;;;;;;;;;;102516;1295;600964;-51
2023/01/22 14:46:47;;;;;;;10.30;7.20;;;;;;;;;;104599;1263;61321;-49